Time,TemperatureF,DewpointF,PressureIn,WindDirection,WindDirectionDegrees,WindSpeedMPH,WindSpeedGustMPH,Humidity,HourlyPrecipIn,Conditions,Clouds,dailyrainin,SolarRadiationWatts/m^2,SoftwareType,DateUTC
2013-02-22 00:01:00,32.4,21.9,30.20,NNE,19,5.8,5.8,65,0.00,CLR,,0.00,0.0,WeatherDisplay:10.37,2013-02-22 00:01:00,
2013-02-22 00:06:00,32.4,21.9,30.20,East,85,11.5,11.5,65,0.00,CLR,,0.00,0.0,WeatherDisplay:10.37,2013-02-22 00:06:00,
2013-02-22 00:11:00,32.4,21.9,30.20,NE,39,3.5,3.5,65,0.00,CLR,,0.00,0.0,WeatherDisplay:10.37,2013-02-22 00:11:00,
2013-02-22 00:16:00,32.5,22.0,30.20,NNE,19,11.5,11.5,65,0.00,CLR,,0.00,0.0,WeatherDisplay:10.37,2013-02-22 00:16:00,
2013-02-22 00:21:00,32.5,22.0,30.20,NNE,31,17.3,17.3,65,0.00,CLR,,0.00,0.0,WeatherDisplay:10.37,2013-02-22 00:21:00,
2013-02-22 00:26:00,32.6,21.8,30.20,NE,50,12.7,12.7,64,0.00,CLR,,0.00,0.0,WeatherDisplay:10.37,2013-02-22 00:26:00,
2013-02-22 00:31:00,32.6,21.8,30.19,NE,56,3.5,3.5,64,0.00,CLR,,0.00,0.0,WeatherDisplay:10.37,2013-02-22 00:31:00,
2013-02-22 00:36:00,32.6,22.1,30.19,NNE,27,11.5,11.5,65,0.00,CLR,,0.00,0.0,WeatherDisplay:10.37,2013-02-22 00:36:00,
2013-02-22 00:41:00,32.6,22.1,30.19,ESE,115,10.4,10.4,65,0.00,CLR,,0.00,0.0,WeatherDisplay:10.37,2013-02-22 00:41:00,
2013-02-22 00:46:00,32.6,22.1,30.19,NE,44,15.0,15.0,65,0.00,CLR,,0.00,0.0,WeatherDisplay:10.37,2013-02-22 00:46:00,
2013-02-22 00:51:00,32.7,22.2,30.19,NE,55,6.9,6.9,65,0.00,CLR,,0.00,0.0,WeatherDisplay:10.37,2013-02-22 00:51:00,
2013-02-22 00:56:00,32.7,22.6,30.19,ENE,71,4.6,4.6,66,0.00,CLR,,0.00,0.0,WeatherDisplay:10.37,2013-02-22 00:56:00,
2013-02-22 01:01:00,32.7,22.6,30.19,ENE,71,4.6,4.6,66,0.00,CLR,,0.00,0.0,WeatherDisplay:10.37,2013-02-22 01:01:00,
2013-02-22 01:06:00,32.6,22.8,30.19,East,82,6.9,6.9,67,0.00,CLR,,0.00,0.0,WeatherDisplay:10.37,2013-02-22 01:06:00,
2013-02-22 01:11:00,32.6,22.8,30.19,ENE,68,5.8,5.8,67,0.00,CLR,,0.00,0.0,WeatherDisplay:10.37,2013-02-22 01:11:00,
2013-02-22 01:16:00,32.6,23.2,30.19,ENE,57,11.5,11.5,68,0.00,CLR,,0.00,0.0,WeatherDisplay:10.37,2013-02-22 01:16:00,
2013-02-22 01:21:00,32.5,23.1,30.19,ENE,75,4.6,4.6,68,0.00,CLR,,0.00,0.0,WeatherDisplay:10.37,2013-02-22 01:21:00,
2013-02-22 01:26:00,32.5,23.5,30.19,ENE,75,3.5,3.5,69,0.00,CLR,,0.00,0.0,WeatherDisplay:10.37,2013-02-22 01:26:00,
2013-02-22 01:31:00,32.5,23.5,30.19,NE,47,9.2,9.2,69,0.00,CLR,,0.00,0.0,WeatherDisplay:10.37,2013-02-22 01:31:00,
2013-02-22 01:36:00,32.4,23.7,30.19,NE,43,5.8,5.8,70,0.00,CLR,,0.00,0.0,WeatherDisplay:10.37,2013-02-22 01:36:00,
2013-02-22 01:41:00,32.4,23.7,30.19,ENE,59,3.5,3.5,70,0.00,CLR,,0.00,0.0,WeatherDisplay:10.37,2013-02-22 01:41:00,
2013-02-22 01:46:00,32.4,23.4,30.19,ENE,70,5.8,5.8,69,0.00,CLR,,0.00,0.0,WeatherDisplay:10.37,2013-02-22 01:46:00,
2013-02-22 01:51:00,32.3,23.3,30.18,East,88,10.4,10.4,69,0.00,CLR,,0.00,0.0,WeatherDisplay:10.37,2013-02-22 01:51:00,
2013-02-22 01:56:00,32.3,23.3,30.18,ENE,61,2.3,2.3,69,0.00,CLR,,0.00,0.0,WeatherDisplay:10.37,2013-02-22 01:56:00,
2013-02-22 02:01:00,32.3,23.3,30.18,ENE,78,11.5,11.5,69,0.00,CLR,,0.00,0.0,WeatherDisplay:10.37,2013-02-22 02:01:00,
2013-02-22 02:06:00,32.3,23.3,30.18,NE,51,11.5,11.5,69,0.00,CLR,,0.00,0.0,WeatherDisplay:10.37,2013-02-22 02:06:00,
2013-02-22 02:11:00,32.3,23.3,30.18,ENE,76,9.2,9.2,69,0.00,CLR,,0.00,0.0,WeatherDisplay:10.37,2013-02-22 02:11:00,
2013-02-22 02:16:00,32.2,22.8,30.18,NNE,22,11.5,11.5,68,0.00,CLR,,0.00,0.0,WeatherDisplay:10.37,2013-02-22 02:16:00,
2013-02-22 02:21:00,32.2,22.8,30.18,ENE,71,10.4,10.4,68,0.00,CLR,,0.00,0.0,WeatherDisplay:10.37,2013-02-22 02:21:00,
2013-02-22 02:26:00,32.2,22.5,30.18,East,79,5.8,5.8,67,0.00,CLR,,0.00,0.0,WeatherDisplay:10.37,2013-02-22 02:26:00,
2013-02-22 02:31:00,32.2,22.5,30.18,NE,52,5.8,5.8,67,0.00,CLR,,0.00,0.0,WeatherDisplay:10.37,2013-02-22 02:31:00,
2013-02-22 02:36:00,32.3,22.6,30.17,ENE,77,8.1,8.1,67,0.00,CLR,,0.00,0.0,WeatherDisplay:10.37,2013-02-22 02:36:00,
2013-02-22 02:40:00,32.3,22.6,30.17,ENE,57,4.6,4.6,67,0.00,CLR,,0.00,0.0,WeatherDisplay:10.37,2013-02-22 02:40:00,
2013-02-22 02:45:00,32.2,22.5,30.17,NE,55,8.1,8.1,67,0.00,CLR,,0.00,0.0,WeatherDisplay:10.37,2013-02-22 02:45:00,
2013-02-22 02:50:00,32.2,22.5,30.17,ENE,69,10.4,10.4,67,0.00,CLR,,0.00,0.0,WeatherDisplay:10.37,2013-02-22 02:50:00,
2013-02-22 02:55:00,32.1,22.4,30.17,ENE,71,5.8,5.8,67,0.00,CLR,,0.00,0.0,WeatherDisplay:10.37,2013-02-22 02:55:00,
2013-02-22 03:00:00,32.1,22.4,30.17,ENE,78,7.0,7.0,67,0.00,CLR,,0.00,0.0,WeatherDisplay:10.37,2013-02-22 03:00:00,
2013-02-22 03:05:00,32.1,22.7,30.17,ENE,62,5.0,5.0,68,0.00,CLR,,0.00,0.0,WeatherDisplay:10.37,2013-02-22 03:05:00,
2013-02-22 03:10:00,32.1,22.7,30.17,ENE,67,2.3,2.3,68,0.00,CLR,,0.00,0.0,WeatherDisplay:10.37,2013-02-22 03:10:00,
2013-02-22 03:15:00,32.1,22.7,30.17,NNE,25,5.8,5.8,68,0.00,CLR,,0.00,0.0,WeatherDisplay:10.37,2013-02-22 03:15:00,
2013-02-22 03:21:00,32.1,22.7,30.16,ENE,63,6.9,6.9,68,0.00,CLR,,0.00,0.0,WeatherDisplay:10.37,2013-02-22 03:21:00,
2013-02-22 03:26:00,32.1,22.7,30.16,ENE,58,3.0,3.0,68,0.00,CLR,,0.00,0.0,WeatherDisplay:10.37,2013-02-22 03:26:00,
2013-02-22 03:31:00,32.0,22.6,30.16,NE,47,6.9,6.9,68,0.00,CLR,,0.00,0.0,WeatherDisplay:10.37,2013-02-22 03:31:00,
2013-02-22 03:36:00,32.0,22.6,30.16,East,100,9.2,9.2,68,0.00,CLR,,0.00,0.0,WeatherDisplay:10.37,2013-02-22 03:36:00,
2013-02-22 03:41:00,32.1,22.7,30.16,ENE,68,4.0,4.0,68,0.00,CLR,,0.00,0.0,WeatherDisplay:10.37,2013-02-22 03:41:00,
2013-02-22 03:46:00,32.1,22.7,30.16,ENE,75,9.2,9.2,68,0.00,CLR,,0.00,0.0,WeatherDisplay:10.37,2013-02-22 03:46:00,
2013-02-22 03:50:00,32.1,22.7,30.16,East,85,4.6,4.6,68,0.00,CLR,,0.00,0.0,WeatherDisplay:10.37,2013-02-22 03:50:00,
2013-02-22 03:55:00,32.1,22.7,30.16,East,91,5.8,5.8,68,0.00,CLR,,0.00,0.0,WeatherDisplay:10.37,2013-02-22 03:55:00,
2013-02-22 04:00:00,32.1,22.7,30.16,ENE,63,8.1,8.1,68,0.00,CLR,,0.00,0.0,WeatherDisplay:10.37,2013-02-22 04:00:00,
2013-02-22 04:05:00,32.1,22.7,30.16,East,80,3.5,3.5,68,0.00,CLR,,0.00,0.0,WeatherDisplay:10.37,2013-02-22 04:05:00,
2013-02-22 04:10:00,32.1,22.7,30.16,ENE,76,6.9,6.9,68,0.00,CLR,,0.00,0.0,WeatherDisplay:10.37,2013-02-22 04:10:00,
2013-02-22 04:15:00,32.0,22.6,30.17,ENE,67,5.8,5.8,68,0.00,CLR,,0.00,0.0,WeatherDisplay:10.37,2013-02-22 04:15:00,
2013-02-22 04:20:00,32.0,22.6,30.16,ENE,61,7.0,7.0,68,0.00,CLR,,0.00,0.0,WeatherDisplay:10.37,2013-02-22 04:20:00,
2013-02-22 04:25:00,32.0,22.6,30.16,NE,52,4.6,4.6,68,0.00,CLR,,0.00,0.0,WeatherDisplay:10.37,2013-02-22 04:25:00,
2013-02-22 04:30:00,31.9,22.5,30.16,ENE,71,6.9,6.9,68,0.00,CLR,,0.00,0.0,WeatherDisplay:10.37,2013-02-22 04:30:00,
2013-02-22 04:35:00,31.9,22.2,30.17,East,92,9.2,9.2,67,0.00,CLR,,0.00,0.0,WeatherDisplay:10.37,2013-02-22 04:35:00,
2013-02-22 04:40:00,31.9,22.2,30.17,NE,42,4.6,4.6,67,0.00,CLR,,0.00,0.0,WeatherDisplay:10.37,2013-02-22 04:40:00,
2013-02-22 04:45:00,31.9,22.5,30.16,ENE,78,6.9,6.9,68,0.00,CLR,,0.00,0.0,WeatherDisplay:10.37,2013-02-22 04:45:00,
2013-02-22 04:50:00,31.9,22.5,30.16,ENE,67,5.8,5.8,68,0.00,CLR,,0.00,0.0,WeatherDisplay:10.37,2013-02-22 04:50:00,
2013-02-22 04:55:00,31.9,22.5,30.16,ENE,61,3.5,3.5,68,0.00,CLR,,0.00,0.0,WeatherDisplay:10.37,2013-02-22 04:55:00,
2013-02-22 05:00:00,31.9,22.5,30.16,ENE,62,3.5,3.5,68,0.00,CLR,,0.00,0.0,WeatherDisplay:10.37,2013-02-22 05:00:00,
2013-02-22 05:05:00,31.9,22.2,30.16,East,83,8.1,8.1,67,0.00,CLR,,0.00,0.0,WeatherDisplay:10.37,2013-02-22 05:05:00,
2013-02-22 05:10:00,31.9,22.2,30.16,NE,40,6.0,6.0,67,0.00,CLR,,0.00,0.0,WeatherDisplay:10.37,2013-02-22 05:10:00,
2013-02-22 05:15:00,31.9,22.2,30.16,NE,56,9.2,9.2,67,0.00,CLR,,0.00,0.0,WeatherDisplay:10.37,2013-02-22 05:15:00,
2013-02-22 05:20:00,31.9,22.2,30.16,ENE,65,6.0,6.0,67,0.00,CLR,,0.00,0.0,WeatherDisplay:10.37,2013-02-22 05:20:00,
2013-02-22 05:25:00,31.9,22.2,30.16,NE,51,5.8,5.8,67,0.00,CLR,,0.00,0.0,WeatherDisplay:10.37,2013-02-22 05:25:00,
2013-02-22 05:30:00,32.0,22.3,30.16,ENE,72,9.2,9.2,67,0.00,CLR,,0.00,0.0,WeatherDisplay:10.37,2013-02-22 05:30:00,
2013-02-22 05:35:00,31.9,22.2,30.16,ENE,74,8.1,8.1,67,0.00,CLR,,0.00,0.0,WeatherDisplay:10.37,2013-02-22 05:35:00,
2013-02-22 05:40:00,32.0,22.6,30.16,NE,56,6.9,6.9,68,0.00,CLR,,0.00,0.0,WeatherDisplay:10.37,2013-02-22 05:40:00,
2013-02-22 05:45:00,31.9,22.5,30.16,East,99,7.0,7.0,68,0.00,CLR,,0.00,0.0,WeatherDisplay:10.37,2013-02-22 05:45:00,
2013-02-22 05:50:00,31.9,22.9,30.17,ENE,71,3.5,3.5,69,0.00,CLR,,0.00,0.0,WeatherDisplay:10.37,2013-02-22 05:50:00,
2013-02-22 05:55:00,31.8,22.8,30.16,NNE,30,8.1,8.1,69,0.00,CLR,,0.00,0.0,WeatherDisplay:10.37,2013-02-22 05:55:00,
2013-02-22 06:00:00,31.8,23.1,30.16,NNE,24,4.0,4.0,70,0.00,CLR,,0.00,0.0,WeatherDisplay:10.37,2013-02-22 06:00:00,
2013-02-22 06:05:00,31.7,23.0,30.16,NNE,32,4.6,4.6,70,0.00,CLR,,0.00,0.0,WeatherDisplay:10.37,2013-02-22 06:05:00,
2013-02-22 06:10:00,31.7,23.0,30.16,NNE,32,5.8,5.8,70,0.00,CLR,,0.00,0.0,WeatherDisplay:10.37,2013-02-22 06:10:00,
2013-02-22 06:15:00,31.6,23.3,30.16,ENE,76,10.4,10.4,71,0.00,CLR,,0.00,0.0,WeatherDisplay:10.37,2013-02-22 06:15:00,
2013-02-22 06:20:00,31.6,23.3,30.16,ENE,64,4.6,4.6,71,0.00,CLR,,0.00,0.0,WeatherDisplay:10.37,2013-02-22 06:20:00,
2013-02-22 06:25:00,31.6,23.3,30.16,ENE,61,5.8,5.8,71,0.00,CLR,,0.00,0.0,WeatherDisplay:10.37,2013-02-22 06:25:00,
2013-02-22 06:30:00,31.6,23.3,30.17,ENE,63,4.6,4.6,71,0.00,CLR,,0.00,0.0,WeatherDisplay:10.37,2013-02-22 06:30:00,
2013-02-22 06:35:00,31.6,23.6,30.17,NE,51,7.0,7.0,72,0.00,CLR,,0.00,0.0,WeatherDisplay:10.37,2013-02-22 06:35:00,
2013-02-22 06:40:00,31.5,23.5,30.17,NNE,31,5.8,5.8,72,0.00,CLR,,0.00,0.0,WeatherDisplay:10.37,2013-02-22 06:40:00,
2013-02-22 06:45:00,31.5,23.8,30.17,NE,38,9.2,9.2,73,0.00,CLR,,0.00,0.0,WeatherDisplay:10.37,2013-02-22 06:45:00,
2013-02-22 06:50:00,31.5,24.2,30.17,NNE,33,11.5,11.5,74,0.00,CLR,,0.00,0.0,WeatherDisplay:10.37,2013-02-22 06:50:00,
2013-02-22 06:55:00,31.5,24.2,30.17,NE,48,4.6,4.6,74,0.00,CLR,,0.00,0.0,WeatherDisplay:10.37,2013-02-22 06:55:00,
2013-02-22 07:00:00,31.4,24.4,30.17,NNE,32,9.2,9.2,75,0.00,CLR,,0.00,0.0,WeatherDisplay:10.37,2013-02-22 07:00:00,
2013-02-22 07:05:00,31.4,24.4,30.17,NNE,13,9.2,9.2,75,0.00,OVC,,0.00,0.0,WeatherDisplay:10.37,2013-02-22 07:05:00,
2013-02-22 07:10:00,31.4,24.4,30.17,NNE,17,11.5,11.5,75,0.00,OVC,,0.00,0.0,WeatherDisplay:10.37,2013-02-22 07:10:00,
2013-02-22 07:15:00,31.4,24.7,30.17,NNE,24,5.8,5.8,76,0.00,OVC,,0.00,0.0,WeatherDisplay:10.37,2013-02-22 07:15:00,
2013-02-22 07:20:00,31.4,24.7,30.18,NE,51,3.5,3.5,76,0.00,OVC,,0.00,0.0,WeatherDisplay:10.37,2013-02-22 07:20:00,
2013-02-22 07:25:00,31.4,24.7,30.18,NE,42,3.5,3.5,76,0.00,BKN,,0.00,5.0,WeatherDisplay:10.37,2013-02-22 07:25:00,
2013-02-22 07:30:00,31.4,24.7,30.18,NNE,32,4.0,4.0,76,0.00,BKN,,0.00,7.0,WeatherDisplay:10.37,2013-02-22 07:30:00,
2013-02-22 07:35:00,31.4,24.7,30.18,NE,37,6.9,6.9,76,0.00,BKN,,0.00,9.0,WeatherDisplay:10.37,2013-02-22 07:35:00,
2013-02-22 07:40:00,31.4,24.7,30.18,NE,46,8.0,8.0,76,0.00,BKN,,0.00,11.0,WeatherDisplay:10.37,2013-02-22 07:40:00,
2013-02-22 07:45:00,31.4,24.7,30.18,NE,55,4.6,4.6,76,0.00,BKN,,0.00,14.0,WeatherDisplay:10.37,2013-02-22 07:45:00,
2013-02-22 07:50:00,31.4,24.7,30.18,ENE,58,3.5,3.5,76,0.00,BKN,,0.00,16.0,WeatherDisplay:10.37,2013-02-22 07:50:00,
2013-02-22 07:55:00,31.5,24.5,30.18,ENE,78,6.9,6.9,75,0.00,BKN,,0.00,18.0,WeatherDisplay:10.37,2013-02-22 07:55:00,
2013-02-22 08:00:00,31.5,24.5,30.18,NE,56,10.4,10.4,75,0.00,BKN,,0.00,19.0,WeatherDisplay:10.37,2013-02-22 08:00:00,
2013-02-22 08:05:00,31.6,24.6,30.18,NE,56,2.3,2.3,75,0.00,BKN,,0.00,21.0,WeatherDisplay:10.37,2013-02-22 08:05:00,
2013-02-22 08:10:00,31.6,24.6,30.18,ENE,57,6.9,6.9,75,0.00,BKN,,0.00,25.0,WeatherDisplay:10.37,2013-02-22 08:10:00,
2013-02-22 08:15:00,31.6,24.6,30.18,NE,41,3.5,3.5,75,0.00,BKN,,0.00,32.0,WeatherDisplay:10.37,2013-02-22 08:15:00,
2013-02-22 08:20:00,31.7,24.4,30.18,NE,42,5.0,5.0,74,0.00,BKN,,0.00,39.0,WeatherDisplay:10.37,2013-02-22 08:20:00,
2013-02-22 08:25:00,31.8,24.5,30.18,ENE,61,4.6,5.0,74,0.00,BKN,,0.00,39.0,WeatherDisplay:10.37,2013-02-22 08:25:00,
2013-02-22 08:30:00,31.8,24.5,30.18,NNE,19,10.4,10.4,74,0.00,BKN,,0.00,35.0,WeatherDisplay:10.37,2013-02-22 08:30:00,
2013-02-22 08:35:00,31.9,24.2,30.18,ENE,57,6.9,6.9,73,0.00,BKN,,0.00,40.0,WeatherDisplay:10.37,2013-02-22 08:35:00,
2013-02-22 08:40:00,31.9,24.2,30.19,ESE,117,9.2,9.2,73,0.00,BKN,,0.00,42.0,WeatherDisplay:10.37,2013-02-22 08:40:00,
2013-02-22 08:45:00,31.9,23.9,30.19,NNE,20,5.0,5.0,72,0.00,BKN,,0.00,39.0,WeatherDisplay:10.37,2013-02-22 08:45:00,
2013-02-22 08:50:00,32.0,24.0,30.19,ENE,63,4.0,4.0,72,0.00,BKN,,0.00,51.0,WeatherDisplay:10.37,2013-02-22 08:50:00,
2013-02-22 08:55:00,32.0,24.0,30.18,ENE,57,3.5,3.5,72,0.00,BKN,,0.00,56.0,WeatherDisplay:10.37,2013-02-22 08:55:00,
2013-02-22 09:00:00,32.1,24.1,30.18,East,80,9.2,9.2,72,0.00,BKN,,0.00,62.0,WeatherDisplay:10.37,2013-02-22 09:00:00,
2013-02-22 09:05:00,32.2,24.2,30.19,ENE,65,7.0,7.0,72,0.00,BKN,,0.00,65.0,WeatherDisplay:10.37,2013-02-22 09:05:00,
2013-02-22 09:10:00,32.3,24.3,30.19,ENE,57,5.8,5.8,72,0.00,BKN,,0.00,72.0,WeatherDisplay:10.37,2013-02-22 09:10:00,
2013-02-22 09:15:00,32.3,23.9,30.19,ENE,77,8.0,8.0,71,0.00,BKN,,0.00,70.0,WeatherDisplay:10.37,2013-02-22 09:15:00,
2013-02-22 09:20:00,32.4,24.0,30.18,NE,36,5.8,5.8,71,0.00,BKN,,0.00,60.0,WeatherDisplay:10.37,2013-02-22 09:20:00,
2013-02-22 09:25:00,32.5,24.1,30.18,ENE,65,4.0,4.0,71,0.00,BKN,,0.00,58.0,WeatherDisplay:10.37,2013-02-22 09:25:00,
2013-02-22 09:30:00,32.5,24.1,30.19,ENE,65,4.0,4.0,71,0.00,BKN,,0.00,63.0,WeatherDisplay:10.37,2013-02-22 09:30:00,
2013-02-22 09:35:00,32.6,24.2,30.19,NNE,32,5.8,5.8,71,0.00,BKN,,0.00,77.0,WeatherDisplay:10.37,2013-02-22 09:35:00,
2013-02-22 09:40:00,32.7,24.3,30.19,NE,40,3.5,3.5,71,0.00,BKN,,0.00,95.0,WeatherDisplay:10.37,2013-02-22 09:40:00,
2013-02-22 09:45:00,32.8,24.1,30.18,ENE,64,9.2,9.2,70,0.00,BKN,,0.00,132.0,WeatherDisplay:10.37,2013-02-22 09:45:00,
2013-02-22 09:50:00,32.8,23.7,30.19,NE,49,9.0,9.0,69,0.00,BKN,,0.00,137.0,WeatherDisplay:10.37,2013-02-22 09:50:00,
2013-02-22 09:55:00,33.0,23.9,30.18,NE,55,9.2,9.2,69,0.00,BKN,,0.00,144.0,WeatherDisplay:10.37,2013-02-22 09:55:00,
2013-02-22 10:00:00,33.2,24.1,30.18,NE,47,5.8,5.8,69,0.00,BKN,,0.00,148.0,WeatherDisplay:10.37,2013-02-22 10:00:00,
2013-02-22 10:05:00,33.4,24.0,30.18,NE,44,10.4,10.4,68,0.00,BKN,,0.00,153.0,WeatherDisplay:10.37,2013-02-22 10:05:00,
2013-02-22 10:10:00,33.5,24.1,30.18,ENE,67,10.4,10.4,68,0.00,BKN,,0.00,156.0,WeatherDisplay:10.37,2013-02-22 10:10:00,
2013-02-22 10:15:00,33.7,23.9,30.18,ENE,69,15.0,15.0,67,0.00,BKN,,0.00,146.0,WeatherDisplay:10.37,2013-02-22 10:15:00,
2013-02-22 10:20:00,33.7,23.5,30.18,ESE,112,5.8,5.8,66,0.00,BKN,,0.00,142.0,WeatherDisplay:10.37,2013-02-22 10:20:00,
2013-02-22 10:25:00,33.8,24.0,30.19,ENE,78,13.0,13.0,67,0.00,BKN,,0.00,179.0,WeatherDisplay:10.37,2013-02-22 10:25:00,
2013-02-22 10:30:00,33.8,23.6,30.18,NE,55,6.9,6.9,66,0.00,BKN,,0.00,155.0,WeatherDisplay:10.37,2013-02-22 10:30:00,
2013-02-22 10:35:00,33.9,24.1,30.18,NNE,29,6.9,6.9,67,0.00,BKN,,0.00,171.0,WeatherDisplay:10.37,2013-02-22 10:35:00,
2013-02-22 10:40:00,34.1,24.3,30.19,NE,34,11.5,11.5,67,0.00,BKN,,0.00,199.0,WeatherDisplay:10.37,2013-02-22 10:40:00,
2013-02-22 10:45:00,34.3,24.5,30.18,NE,40,10.4,10.4,67,0.00,SCT,,0.00,207.0,WeatherDisplay:10.37,2013-02-22 10:45:00,
2013-02-22 10:50:00,34.4,24.2,30.18,NE,56,12.7,12.7,66,0.00,SCT,,0.00,225.0,WeatherDisplay:10.37,2013-02-22 10:50:00,
2013-02-22 10:55:00,34.7,24.9,30.18,ENE,57,11.5,11.5,67,0.00,SCT,,0.00,202.0,WeatherDisplay:10.37,2013-02-22 10:55:00,
2013-02-22 11:00:00,34.7,24.5,30.18,NNE,32,6.0,6.0,66,0.00,SCT,,0.00,183.0,WeatherDisplay:10.37,2013-02-22 11:00:00,
2013-02-22 11:05:00,34.6,24.0,30.19,ENE,78,7.0,7.0,65,0.00,BKN,,0.00,193.0,WeatherDisplay:10.37,2013-02-22 11:05:00,
2013-02-22 11:10:00,34.5,24.3,30.19,ENE,76,8.1,8.1,66,0.00,BKN,,0.00,155.0,WeatherDisplay:10.37,2013-02-22 11:10:00,
2013-02-22 11:15:00,34.4,23.8,30.18,ENE,78,10.4,10.4,65,0.00,BKN,,0.00,132.0,WeatherDisplay:10.37,2013-02-22 11:15:00,
2013-02-22 11:20:00,34.4,24.2,30.18,ENE,76,11.5,11.5,66,0.00,BKN,,0.00,192.0,WeatherDisplay:10.37,2013-02-22 11:20:00,
2013-02-22 11:25:00,34.3,23.7,30.18,ENE,63,10.0,10.0,65,0.00,BKN,,0.00,165.0,WeatherDisplay:10.37,2013-02-22 11:25:00,
2013-02-22 11:30:00,34.3,23.7,30.18,ENE,59,15.0,15.0,65,0.00,BKN,,0.00,155.0,WeatherDisplay:10.37,2013-02-22 11:30:00,
2013-02-22 11:35:00,34.3,23.7,30.18,ENE,57,4.6,4.6,65,0.00,BKN,,0.00,160.0,WeatherDisplay:10.37,2013-02-22 11:35:00,
2013-02-22 11:40:00,34.4,23.8,30.18,East,83,5.8,5.8,65,0.00,BKN,,0.00,113.0,WeatherDisplay:10.37,2013-02-22 11:40:00,
2013-02-22 11:45:00,34.4,24.2,30.18,NE,43,5.8,5.8,66,0.00,BKN,,0.00,88.0,WeatherDisplay:10.37,2013-02-22 11:45:00,
2013-02-22 11:50:00,34.4,24.2,30.18,ENE,68,11.5,11.5,66,0.00,BKN,,0.00,72.0,WeatherDisplay:10.37,2013-02-22 11:50:00,
2013-02-22 11:55:00,34.2,24.0,30.18,East,91,11.5,11.5,66,0.00,BKN,,0.00,65.0,WeatherDisplay:10.37,2013-02-22 11:55:00,
2013-02-22 12:00:00,34.0,23.8,30.18,East,82,6.9,6.9,66,0.00,BKN,,0.00,100.0,WeatherDisplay:10.37,2013-02-22 12:00:00,
2013-02-22 12:05:00,34.1,24.3,30.18,NE,53,3.5,3.5,67,0.00,BKN,,0.00,197.0,WeatherDisplay:10.37,2013-02-22 12:05:00,
2013-02-22 12:10:00,34.4,24.9,30.17,ENE,71,5.8,5.8,68,0.00,BKN,,0.00,216.0,WeatherDisplay:10.37,2013-02-22 12:10:00,
2013-02-22 12:15:00,34.6,24.8,30.17,East,99,8.1,8.1,67,0.00,BKN,,0.00,123.0,WeatherDisplay:10.37,2013-02-22 12:15:00,
2013-02-22 12:20:00,34.6,24.8,30.17,NE,46,13.8,13.8,67,0.00,BKN,,0.00,160.0,WeatherDisplay:10.37,2013-02-22 12:20:00,
2013-02-22 12:25:00,34.5,24.7,30.17,ENE,75,11.5,11.5,67,0.00,BKN,,0.00,158.0,WeatherDisplay:10.37,2013-02-22 12:25:00,
2013-02-22 12:30:00,34.5,24.7,30.17,East,92,3.5,3.5,67,0.00,BKN,,0.00,114.0,WeatherDisplay:10.37,2013-02-22 12:30:00,
2013-02-22 12:35:00,34.5,24.7,30.17,East,96,11.5,11.5,67,0.00,BKN,,0.00,91.0,WeatherDisplay:10.37,2013-02-22 12:35:00,
2013-02-22 12:40:00,34.4,24.6,30.17,ENE,64,11.5,11.5,67,0.00,BKN,,0.00,118.0,WeatherDisplay:10.37,2013-02-22 12:40:00,
2013-02-22 12:45:00,34.4,24.6,30.16,ENE,68,7.0,7.0,67,0.00,BKN,,0.00,142.0,WeatherDisplay:10.37,2013-02-22 12:45:00,
2013-02-22 12:50:00,34.4,24.6,30.16,East,90,11.5,11.5,67,0.00,BKN,,0.00,125.0,WeatherDisplay:10.37,2013-02-22 12:50:00,
2013-02-22 12:55:00,34.5,24.7,30.16,East,92,15.0,15.0,67,0.00,BKN,,0.00,105.0,WeatherDisplay:10.37,2013-02-22 12:55:00,
2013-02-22 13:00:00,34.5,24.3,30.16,NNE,20,10.4,10.4,66,0.00,BKN,,0.00,172.0,WeatherDisplay:10.37,2013-02-22 13:00:00,
2013-02-22 13:05:00,34.6,24.8,30.16,ESE,105,5.8,5.8,67,0.00,BKN,,0.00,190.0,WeatherDisplay:10.37,2013-02-22 13:05:00,
2013-02-22 13:10:00,34.7,24.5,30.16,East,87,11.5,11.5,66,0.00,BKN,,0.00,230.0,WeatherDisplay:10.37,2013-02-22 13:10:00,
2013-02-22 13:15:00,34.8,24.6,30.16,NNE,26,11.5,11.5,66,0.00,BKN,,0.00,171.0,WeatherDisplay:10.37,2013-02-22 13:15:00,
2013-02-22 13:20:00,34.9,25.0,30.16,NNE,31,9.2,9.2,67,0.00,BKN,,0.00,174.0,WeatherDisplay:10.37,2013-02-22 13:20:00,
2013-02-22 13:25:00,34.8,24.6,30.16,NE,55,8.1,8.1,66,0.00,BKN,,0.00,128.0,WeatherDisplay:10.37,2013-02-22 13:25:00,
2013-02-22 13:30:00,34.8,24.6,30.15,ESE,105,10.4,10.4,66,0.00,BKN,,0.00,118.0,WeatherDisplay:10.37,2013-02-22 13:30:00,
2013-02-22 13:35:00,34.7,24.5,30.15,ENE,69,6.9,6.9,66,0.00,BKN,,0.00,97.0,WeatherDisplay:10.37,2013-02-22 13:35:00,
2013-02-22 13:40:00,34.8,24.6,30.15,ENE,60,5.8,5.8,66,0.00,BKN,,0.00,81.0,WeatherDisplay:10.37,2013-02-22 13:40:00,
2013-02-22 13:45:00,34.7,24.5,30.15,ESE,103,11.5,11.5,66,0.00,BKN,,0.00,111.0,WeatherDisplay:10.37,2013-02-22 13:45:00,
2013-02-22 13:50:00,34.6,24.4,30.15,NE,38,3.5,3.5,66,0.00,BKN,,0.00,132.0,WeatherDisplay:10.37,2013-02-22 13:50:00,
2013-02-22 13:55:00,34.7,24.9,30.15,NE,42,10.4,10.4,67,0.00,BKN,,0.00,121.0,WeatherDisplay:10.37,2013-02-22 13:55:00,
2013-02-22 14:00:00,34.7,24.5,30.15,NE,35,11.5,11.5,66,0.00,BKN,,0.00,123.0,WeatherDisplay:10.37,2013-02-22 14:00:00,
2013-02-22 14:05:00,34.7,24.5,30.15,NNE,19,6.9,6.9,66,0.00,BKN,,0.00,156.0,WeatherDisplay:10.37,2013-02-22 14:05:00,
2013-02-22 14:10:00,34.7,24.5,30.15,NNE,25,11.5,11.5,66,0.00,BKN,,0.00,183.0,WeatherDisplay:10.37,2013-02-22 14:10:00,
2013-02-22 14:15:00,34.7,24.5,30.15,NE,56,11.5,11.5,66,0.00,BKN,,0.00,114.0,WeatherDisplay:10.37,2013-02-22 14:15:00,
2013-02-22 14:20:00,34.7,24.5,30.15,NE,55,3.5,3.5,66,0.00,BKN,,0.00,104.0,WeatherDisplay:10.37,2013-02-22 14:20:00,
2013-02-22 14:25:00,34.7,24.5,30.15,ENE,57,7.0,7.0,66,0.00,BKN,,0.00,102.0,WeatherDisplay:10.37,2013-02-22 14:25:00,
2013-02-22 14:30:00,34.7,24.5,30.15,NNE,16,12.7,12.7,66,0.00,BKN,,0.00,91.0,WeatherDisplay:10.37,2013-02-22 14:30:00,
2013-02-22 14:35:00,34.7,24.5,30.15,East,79,6.9,6.9,66,0.00,BKN,,0.00,149.0,WeatherDisplay:10.37,2013-02-22 14:35:00,
2013-02-22 14:40:00,34.6,24.4,30.15,ENE,71,5.8,5.8,66,0.00,BKN,,0.00,100.0,WeatherDisplay:10.37,2013-02-22 14:40:00,
2013-02-22 14:45:00,34.7,24.5,30.15,NNE,18,4.6,4.6,66,0.00,BKN,,0.00,70.0,WeatherDisplay:10.37,2013-02-22 14:45:00,
2013-02-22 14:50:00,34.7,24.9,30.15,NE,55,4.6,4.6,67,0.00,BKN,,0.00,65.0,WeatherDisplay:10.37,2013-02-22 14:50:00,
2013-02-22 14:55:00,34.6,24.8,30.15,NNE,26,10.4,10.4,67,0.00,BKN,,0.00,74.0,WeatherDisplay:10.37,2013-02-22 14:55:00,
2013-02-22 15:00:00,34.5,24.3,30.15,NE,55,9.2,9.2,66,0.00,BKN,,0.00,56.0,WeatherDisplay:10.37,2013-02-22 15:00:00,
2013-02-22 15:05:00,34.4,24.2,30.15,East,98,4.0,4.0,66,0.00,BKN,,0.00,86.0,WeatherDisplay:10.37,2013-02-22 15:05:00,
2013-02-22 15:10:00,34.4,24.2,30.15,NNE,21,6.9,6.9,66,0.00,BKN,,0.00,60.0,WeatherDisplay:10.37,2013-02-22 15:10:00,
2013-02-22 15:15:00,34.3,24.5,30.15,NNE,14,9.2,9.2,67,0.00,BKN,,0.00,35.0,WeatherDisplay:10.37,2013-02-22 15:15:00,
2013-02-22 15:20:00,34.3,24.5,30.15,NNE,27,5.8,5.8,67,0.00,BKN,,0.00,42.0,WeatherDisplay:10.37,2013-02-22 15:20:00,
2013-02-22 15:25:00,34.1,24.3,30.14,NE,42,9.2,9.2,67,0.00,BKN,,0.00,60.0,WeatherDisplay:10.37,2013-02-22 15:25:00,
2013-02-22 15:30:00,34.1,24.6,30.14,NE,55,11.5,11.5,68,0.00,BKN,,0.00,90.0,WeatherDisplay:10.37,2013-02-22 15:30:00,
2013-02-22 15:35:00,34.1,24.3,30.14,ENE,61,6.9,6.9,67,0.00,BKN,,0.00,98.0,WeatherDisplay:10.37,2013-02-22 15:35:00,
2013-02-22 15:40:00,34.1,23.9,30.14,ENE,73,10.4,10.4,66,0.00,BKN,,0.00,98.0,WeatherDisplay:10.37,2013-02-22 15:40:00,
2013-02-22 15:45:00,34.2,24.4,30.14,NNE,24,10.4,10.4,67,0.00,BKN,,0.00,69.0,WeatherDisplay:10.37,2013-02-22 15:45:00,
2013-02-22 15:50:00,34.2,24.0,30.14,NE,55,10.4,10.4,66,0.00,BKN,,0.00,53.0,WeatherDisplay:10.37,2013-02-22 15:50:00,
2013-02-22 15:55:00,34.1,23.6,30.14,NE,51,3.5,3.5,65,0.00,BKN,,0.00,35.0,WeatherDisplay:10.37,2013-02-22 15:55:00,
2013-02-22 16:00:00,34.1,23.6,30.14,ENE,66,11.5,11.5,65,0.00,BKN,,0.00,39.0,WeatherDisplay:10.37,2013-02-22 16:00:00,
2013-02-22 16:05:00,34.0,23.5,30.14,NNE,28,10.4,10.4,65,0.00,BKN,,0.00,53.0,WeatherDisplay:10.37,2013-02-22 16:05:00,
2013-02-22 16:10:00,34.0,23.8,30.14,NE,44,9.2,9.2,66,0.00,BKN,,0.00,40.0,WeatherDisplay:10.37,2013-02-22 16:10:00,
2013-02-22 16:15:00,34.0,23.8,30.14,ENE,71,8.1,8.1,66,0.00,BKN,,0.00,37.0,WeatherDisplay:10.37,2013-02-22 16:15:00,
2013-02-22 16:20:00,34.0,24.2,30.14,NNE,30,6.9,6.9,67,0.00,BKN,,0.00,32.0,WeatherDisplay:10.37,2013-02-22 16:20:00,
2013-02-22 16:25:00,33.9,24.4,30.14,North,355,10.4,10.4,68,0.00,BKN,,0.00,28.0,WeatherDisplay:10.37,2013-02-22 16:25:00,
2013-02-22 16:30:00,33.7,24.3,30.15,NNE,19,10.4,10.4,68,0.00,BKN,,0.00,35.0,WeatherDisplay:10.37,2013-02-22 16:30:00,
2013-02-22 16:35:00,33.5,24.4,30.14,NE,51,11.5,11.5,69,0.00,BKN,,0.00,28.0,WeatherDisplay:10.37,2013-02-22 16:35:00,
2013-02-22 16:40:00,33.5,24.8,30.14,NNE,23,3.5,3.5,70,0.00,BKN,,0.00,28.0,WeatherDisplay:10.37,2013-02-22 16:40:00,
2013-02-22 16:45:00,33.4,24.7,30.14,NE,37,4.6,4.6,70,0.00,BKN,,0.00,28.0,WeatherDisplay:10.37,2013-02-22 16:45:00,
2013-02-22 16:50:00,33.4,24.7,30.15,NE,36,5.8,5.8,70,0.00,BKN,,0.00,30.0,WeatherDisplay:10.37,2013-02-22 16:50:00,
2013-02-22 16:55:00,33.2,24.5,30.15,NE,56,4.6,4.6,70,0.00,BKN,,0.00,25.0,WeatherDisplay:10.37,2013-02-22 16:55:00,
2013-02-22 17:00:00,33.2,24.1,30.15,North,5,11.5,11.5,69,0.00,BKN,,0.00,14.0,WeatherDisplay:10.37,2013-02-22 17:00:00,
2013-02-22 17:05:00,33.2,23.8,30.15,ENE,63,9.2,9.2,68,0.00,BKN,,0.00,11.0,WeatherDisplay:10.37,2013-02-22 17:05:00,
2013-02-22 17:10:00,33.2,24.1,30.15,NNE,30,4.6,4.6,69,0.00,BKN,,0.00,7.0,WeatherDisplay:10.37,2013-02-22 17:10:00,
2013-02-22 17:15:00,33.1,24.0,30.15,ENE,72,11.0,11.0,69,0.00,BKN,,0.00,5.0,WeatherDisplay:10.37,2013-02-22 17:15:00,
2013-02-22 17:20:00,33.1,24.0,30.15,North,360,4.6,4.6,69,0.00,OVC,,0.00,0.0,WeatherDisplay:10.37,2013-02-22 17:20:00,
2013-02-22 17:25:00,33.0,23.9,30.15,NNE,14,3.5,3.5,69,0.00,OVC,,0.00,0.0,WeatherDisplay:10.37,2013-02-22 17:25:00,
2013-02-22 17:30:00,33.0,24.3,30.15,NNE,26,5.8,5.8,70,0.00,OVC,,0.00,0.0,WeatherDisplay:10.37,2013-02-22 17:30:00,
2013-02-22 17:35:00,32.9,24.2,30.15,NE,40,9.2,9.2,70,0.00,OVC,,0.00,0.0,WeatherDisplay:10.37,2013-02-22 17:35:00,
2013-02-22 17:40:00,32.9,24.2,30.15,NE,34,4.6,4.6,70,0.00,OVC,,0.00,0.0,WeatherDisplay:10.37,2013-02-22 17:40:00,
2013-02-22 17:45:00,32.9,23.8,30.15,NE,46,4.6,4.6,69,0.00,OVC,,0.00,0.0,WeatherDisplay:10.37,2013-02-22 17:45:00,
2013-02-22 17:50:00,32.9,23.8,30.15,NNE,23,3.5,3.5,69,0.00,OVC,,0.00,0.0,WeatherDisplay:10.37,2013-02-22 17:50:00,
2013-02-22 17:55:00,32.9,23.8,30.16,ENE,59,9.2,9.2,69,0.00,OVC,,0.00,0.0,WeatherDisplay:10.37,2013-02-22 17:55:00,
2013-02-22 18:00:00,32.9,24.2,30.16,NE,44,3.5,3.5,70,0.00,CLR,,0.00,0.0,WeatherDisplay:10.37,2013-02-22 18:00:00,
2013-02-22 18:05:00,32.9,24.2,30.16,NE,37,9.2,9.2,70,0.00,CLR,,0.00,0.0,WeatherDisplay:10.37,2013-02-22 18:05:00,
2013-02-22 18:10:00,32.9,24.2,30.16,ENE,76,4.6,4.6,70,0.00,CLR,,0.00,0.0,WeatherDisplay:10.37,2013-02-22 18:10:00,
2013-02-22 18:15:00,32.8,24.4,30.16,North,5,16.0,16.0,71,0.00,CLR,,0.00,0.0,WeatherDisplay:10.37,2013-02-22 18:15:00,
2013-02-22 18:20:00,32.8,24.4,30.16,NNE,21,3.5,3.5,71,0.00,CLR,,0.00,0.0,WeatherDisplay:10.37,2013-02-22 18:20:00,
2013-02-22 18:25:00,32.8,24.4,30.16,NE,35,8.1,8.1,71,0.00,CLR,,0.00,0.0,WeatherDisplay:10.37,2013-02-22 18:25:00,
2013-02-22 18:30:00,32.8,24.8,30.16,NNE,23,2.3,2.3,72,0.00,CLR,,0.00,0.0,WeatherDisplay:10.37,2013-02-22 18:30:00,
2013-02-22 18:35:00,32.7,24.7,30.16,ENE,64,6.9,6.9,72,0.00,CLR,,0.00,0.0,WeatherDisplay:10.37,2013-02-22 18:35:00,
2013-02-22 18:40:00,32.7,24.7,30.16,NNE,33,4.6,4.6,72,0.00,CLR,,0.00,0.0,WeatherDisplay:10.37,2013-02-22 18:40:00,
2013-02-22 18:45:00,32.7,24.7,30.16,NE,44,4.6,4.6,72,0.00,CLR,,0.00,0.0,WeatherDisplay:10.37,2013-02-22 18:45:00,
2013-02-22 18:50:00,32.7,25.0,30.16,NE,41,3.5,3.5,73,0.00,CLR,,0.00,0.0,WeatherDisplay:10.37,2013-02-22 18:50:00,
2013-02-22 18:55:00,32.7,25.0,30.16,NE,36,5.0,5.0,73,0.00,CLR,,0.00,0.0,WeatherDisplay:10.37,2013-02-22 18:55:00,
2013-02-22 19:00:00,32.6,25.2,30.16,NNE,14,3.5,3.5,74,0.00,CLR,,0.00,0.0,WeatherDisplay:10.37,2013-02-22 19:00:00,
2013-02-22 19:05:00,32.6,25.2,30.16,North,10,4.0,4.0,74,0.00,CLR,,0.00,0.0,WeatherDisplay:10.37,2013-02-22 19:05:00,
2013-02-22 19:10:00,32.6,25.2,30.16,NE,34,4.6,4.6,74,0.00,CLR,,0.00,0.0,WeatherDisplay:10.37,2013-02-22 19:10:00,
2013-02-22 19:15:00,32.6,25.6,30.16,North,360,6.9,6.9,75,0.00,CLR,,0.00,0.0,WeatherDisplay:10.37,2013-02-22 19:15:00,
2013-02-22 19:20:00,32.6,25.6,30.16,North,355,9.2,9.2,75,0.00,CLR,,0.00,0.0,WeatherDisplay:10.37,2013-02-22 19:20:00,
2013-02-22 19:26:00,32.5,25.5,30.16,North,360,3.5,3.5,75,0.00,CLR,,0.00,0.0,WeatherDisplay:10.37,2013-02-22 19:26:00,
2013-02-22 19:30:00,32.5,25.5,30.16,NE,38,3.5,3.5,75,0.00,CLR,,0.00,0.0,WeatherDisplay:10.37,2013-02-22 19:30:00,
2013-02-22 19:35:00,32.5,25.5,30.16,NNE,15,1.2,1.2,75,0.00,CLR,,0.00,0.0,WeatherDisplay:10.37,2013-02-22 19:35:00,
2013-02-22 19:41:00,32.5,25.5,30.16,NNE,12,5.8,5.8,75,0.00,CLR,,0.00,0.0,WeatherDisplay:10.37,2013-02-22 19:41:00,
2013-02-22 19:46:00,32.5,25.5,30.16,North,360,11.5,11.5,75,0.00,CLR,,0.00,0.0,WeatherDisplay:10.37,2013-02-22 19:46:00,
2013-02-22 19:51:00,32.5,25.5,30.16,North,360,6.9,6.9,75,0.00,CLR,,0.00,0.0,WeatherDisplay:10.37,2013-02-22 19:51:00,
2013-02-22 19:56:00,32.5,25.5,30.16,NE,52,2.3,2.3,75,0.00,CLR,,0.00,0.0,WeatherDisplay:10.37,2013-02-22 19:56:00,
2013-02-22 20:01:00,32.6,25.6,30.16,NNE,30,4.6,4.6,75,0.00,CLR,,0.00,0.0,WeatherDisplay:10.37,2013-02-22 20:01:00,
2013-02-22 20:06:00,32.6,25.6,30.16,North,355,13.8,13.8,75,0.00,CLR,,0.00,0.0,WeatherDisplay:10.37,2013-02-22 20:06:00,
2013-02-22 20:11:00,32.6,25.6,30.16,NNE,23,5.8,5.8,75,0.00,CLR,,0.00,0.0,WeatherDisplay:10.37,2013-02-22 20:11:00,
2013-02-22 20:16:00,32.6,25.9,30.16,NE,42,5.8,5.8,76,0.00,CLR,,0.00,0.0,WeatherDisplay:10.37,2013-02-22 20:16:00,
2013-02-22 20:21:00,32.7,26.0,30.16,NNE,24,10.4,10.4,76,0.00,CLR,,0.00,0.0,WeatherDisplay:10.37,2013-02-22 20:21:00,
2013-02-22 20:26:00,32.7,26.0,30.16,NNE,24,5.8,5.8,76,0.00,CLR,,0.00,0.0,WeatherDisplay:10.37,2013-02-22 20:26:00,
2013-02-22 20:31:00,32.7,26.0,30.16,NNE,32,5.0,5.0,76,0.00,CLR,,0.00,0.0,WeatherDisplay:10.37,2013-02-22 20:31:00,
2013-02-22 20:36:00,32.7,26.0,30.16,NNE,26,9.2,9.2,76,0.00,CLR,,0.00,0.0,WeatherDisplay:10.37,2013-02-22 20:36:00,
2013-02-22 20:41:00,32.7,26.3,30.15,NNE,18,2.3,2.9,77,0.00,CLR,,0.00,0.0,WeatherDisplay:10.37,2013-02-22 20:41:00,
2013-02-22 20:46:00,32.7,26.3,30.15,NE,36,6.0,6.0,77,0.00,CLR,,0.00,0.0,WeatherDisplay:10.37,2013-02-22 20:46:00,
2013-02-22 20:51:00,32.7,26.3,30.15,NNW,346,4.0,4.0,77,0.00,CLR,,0.00,0.0,WeatherDisplay:10.37,2013-02-22 20:51:00,
2013-02-22 20:56:00,32.8,26.1,30.15,North,355,7.0,7.0,76,0.00,CLR,,0.00,0.0,WeatherDisplay:10.37,2013-02-22 20:56:00,
2013-02-22 21:01:00,32.8,26.1,30.15,North,360,4.6,4.6,76,0.00,CLR,,0.00,0.0,WeatherDisplay:10.37,2013-02-22 21:01:00,
2013-02-22 21:06:00,32.8,26.1,30.15,NNE,18,6.9,6.9,76,0.00,CLR,,0.00,0.0,WeatherDisplay:10.37,2013-02-22 21:06:00,
2013-02-22 21:11:00,32.9,26.2,30.15,NNW,348,7.0,7.0,76,0.00,CLR,,0.00,0.0,WeatherDisplay:10.37,2013-02-22 21:11:00,
2013-02-22 21:16:00,32.8,26.1,30.15,NE,42,6.9,6.9,76,0.00,CLR,,0.00,0.0,WeatherDisplay:10.37,2013-02-22 21:16:00,
2013-02-22 21:21:00,32.8,26.1,30.15,North,10,5.8,5.8,76,0.00,CLR,,0.00,0.0,WeatherDisplay:10.37,2013-02-22 21:21:00,
2013-02-22 21:26:00,32.8,26.1,30.15,NNE,19,11.5,11.5,76,0.00,CLR,,0.00,0.0,WeatherDisplay:10.37,2013-02-22 21:26:00,
2013-02-22 21:31:00,32.8,26.1,30.15,NNE,14,9.2,9.2,76,0.00,CLR,,0.00,0.0,WeatherDisplay:10.37,2013-02-22 21:31:00,
2013-02-22 21:36:00,32.8,26.1,30.15,NE,41,11.5,11.5,76,0.00,CLR,,0.00,0.0,WeatherDisplay:10.37,2013-02-22 21:36:00,
2013-02-22 21:41:00,32.9,25.8,30.15,NNE,17,11.5,11.5,75,0.00,CLR,,0.00,0.0,WeatherDisplay:10.37,2013-02-22 21:41:00,
2013-02-22 21:46:00,32.9,25.8,30.15,North,10,6.0,6.0,75,0.00,CLR,,0.00,0.0,WeatherDisplay:10.37,2013-02-22 21:46:00,
2013-02-22 21:51:00,32.9,25.8,30.15,NNE,32,11.5,11.5,75,0.00,CLR,,0.00,0.0,WeatherDisplay:10.37,2013-02-22 21:51:00,
2013-02-22 21:56:00,32.8,25.7,30.15,North,9,11.5,11.5,75,0.00,CLR,,0.00,0.0,WeatherDisplay:10.37,2013-02-22 21:56:00,
2013-02-22 22:01:00,32.8,25.4,30.15,NNE,24,16.1,16.1,74,0.00,CLR,,0.00,0.0,WeatherDisplay:10.37,2013-02-22 22:01:00,
2013-02-22 22:06:00,32.8,25.4,30.15,NE,46,9.2,9.2,74,0.00,CLR,,0.00,0.0,WeatherDisplay:10.37,2013-02-22 22:06:00,
2013-02-22 22:11:00,32.8,25.4,30.15,North,360,11.5,11.5,74,0.00,CLR,,0.00,0.0,WeatherDisplay:10.37,2013-02-22 22:11:00,
2013-02-22 22:16:00,32.8,25.1,30.15,NNE,26,10.4,10.4,73,0.00,CLR,,0.00,0.0,WeatherDisplay:10.37,2013-02-22 22:16:00,
2013-02-22 22:21:00,32.8,25.1,30.14,NE,51,3.5,3.5,73,0.00,CLR,,0.00,0.0,WeatherDisplay:10.37,2013-02-22 22:21:00,
2013-02-22 22:26:00,32.8,24.8,30.15,North,9,4.6,4.7,72,0.00,CLR,,0.00,0.0,WeatherDisplay:10.37,2013-02-22 22:26:00,
2013-02-22 22:31:00,32.8,24.8,30.15,ENE,58,10.4,10.4,72,0.00,CLR,,0.00,0.0,WeatherDisplay:10.37,2013-02-22 22:31:00,
2013-02-22 22:36:00,32.8,25.1,30.15,NE,42,4.6,4.6,73,0.00,CLR,,0.00,0.0,WeatherDisplay:10.37,2013-02-22 22:36:00,
2013-02-22 22:41:00,32.8,24.8,30.14,NE,55,6.9,6.9,72,0.00,CLR,,0.00,0.0,WeatherDisplay:10.37,2013-02-22 22:41:00,
2013-02-22 22:46:00,32.8,25.1,30.14,NNE,14,6.9,6.9,73,0.00,CLR,,0.00,0.0,WeatherDisplay:10.37,2013-02-22 22:46:00,
2013-02-22 22:51:00,32.8,25.1,30.15,North,360,10.4,10.4,73,0.00,CLR,,0.00,0.0,WeatherDisplay:10.37,2013-02-22 22:51:00,
2013-02-22 22:56:00,32.8,25.1,30.15,NE,42,11.5,11.5,73,0.00,CLR,,0.00,0.0,WeatherDisplay:10.37,2013-02-22 22:56:00,
2013-02-22 23:01:00,32.8,25.1,30.15,NNE,25,2.3,2.7,73,0.00,CLR,,0.00,0.0,WeatherDisplay:10.37,2013-02-22 23:01:00,
2013-02-22 23:06:00,32.7,25.3,30.15,NNE,22,4.0,4.0,74,0.00,CLR,,0.00,0.0,WeatherDisplay:10.37,2013-02-22 23:06:00,
2013-02-22 23:11:00,32.7,25.3,30.15,NNE,21,4.0,4.0,74,0.00,CLR,,0.00,0.0,WeatherDisplay:10.37,2013-02-22 23:11:00,
2013-02-22 23:16:00,32.7,25.3,30.15,North,355,3.5,3.5,74,0.00,CLR,,0.00,0.0,WeatherDisplay:10.37,2013-02-22 23:16:00,
2013-02-22 23:21:00,32.7,25.3,30.15,North,355,2.3,2.3,74,0.00,CLR,,0.00,0.0,WeatherDisplay:10.37,2013-02-22 23:21:00,
2013-02-22 23:26:00,32.6,25.2,30.15,North,360,3.5,3.5,74,0.00,CLR,,0.00,0.0,WeatherDisplay:10.37,2013-02-22 23:26:00,
2013-02-22 23:31:00,32.6,25.2,30.14,North,360,6.9,6.9,74,0.00,CLR,,0.00,0.0,WeatherDisplay:10.37,2013-02-22 23:31:00,
2013-02-22 23:36:00,32.5,25.1,30.14,NE,46,3.5,3.5,74,0.00,CLR,,0.00,0.0,WeatherDisplay:10.37,2013-02-22 23:36:00,
2013-02-22 23:41:00,32.5,25.5,30.15,North,11,6.9,6.9,75,0.00,CLR,,0.00,0.0,WeatherDisplay:10.37,2013-02-22 23:41:00,
2013-02-22 23:46:00,32.5,25.5,30.14,ENE,68,5.0,5.0,75,0.00,CLR,,0.00,0.0,WeatherDisplay:10.37,2013-02-22 23:46:00,
2013-02-22 23:51:00,32.5,25.5,30.14,ENE,75,10.4,10.4,75,0.00,CLR,,0.00,0.0,WeatherDisplay:10.37,2013-02-22 23:51:00,
2013-02-22 23:56:00,32.5,25.5,30.15,North,5,11.5,11.5,75,0.00,CLR,,0.00,0.0,WeatherDisplay:10.37,2013-02-22 23:56:00,